Flight Track Log - Related Links

Times and Time Zones

All times are in EDT time to prevent confusion due to time zone crossing. See the SWA470 flight status page for this flight to view local times or setup timezone preferences in your user account.

Time Position Orientation Groundspeed Altitude Reporting Facility
EDT Latitude Longitude Course Direction KTS km/h meters Rate Location/Type
Fri 14:12:23 41.8000 -87.8000 236° Southwest 181 335 640  Level Chicago TRACON
Fri 14:13:24 41.7667 -87.8667 236° Southwest 237 439 1,433 728 Climbing Chicago TRACON
Fri 14:13:56 41.7597 -87.9061 257° West 229 425 1,768 934 Climbing Chicago Center
Fri 14:14:58 41.7297 -87.9956 246° West 254 470 2,896 914 Climbing Chicago Center
Fri 14:16:00 41.7567 -88.1111 287° West 278 515 3,658 649 Climbing Chicago Center
Fri 14:17:02 41.7525 -88.2294 267° West 317 587 4,237 782 Climbing Chicago Center
Fri 14:18:04 41.7472 -88.3600 267° West 350 649 5,273 959 Climbing Chicago Center
Fri 14:19:06 41.7419 -88.4944 267° West 362 671 6,218 914 Climbing Chicago Center
Fri 14:20:08 41.7381 -88.6631 268° West 378 700 7,163 811 Climbing Chicago Center
Fri 14:21:10 41.7347 -88.8094 268° West 394 729 7,894 708 Climbing Chicago Center
Fri 14:22:12 41.7322 -88.9606 269° West 406 752 8,626 767 Climbing Chicago Center
Fri 14:23:14 41.7294 -89.1089 269° West 402 745 9,479 541 Climbing Chicago Center
Fri 14:24:17 41.7267 -89.2544 269° West 395 732 9,754 132 Climbing Chicago Center
Fri 14:25:19 41.7214 -89.4294 268° West 396 734 9,754  Level Chicago Center
Fri 14:26:21 41.7172 -89.5811 268° West 407 753 9,754  Level Chicago Center
Fri 14:27:23 41.7133 -89.7311 268° West 405 750 9,754  Level Chicago Center
Fri 14:28:25 41.7097 -89.8825 268° West 408 756 9,754  Level Chicago Center
Fri 14:29:27 41.7044 -90.0397 267° West 409 758 9,754  Level Chicago Center
Fri 14:30:29 41.7003 -90.1908 268° West 409 758 9,754  Level Chicago Center
Fri 14:31:31 41.6944 -90.3436 267° West 412 763 9,754  Level Chicago Center
Fri 14:32:33 41.6881 -90.5256 267° West 409 758 9,754  Level Chicago Center
Fri 14:33:35 41.6817 -90.6767 267° West 409 758 9,754  Level Chicago Center
Fri 14:34:37 41.6772 -90.8267 268° West 406 752 9,754  Level Chicago Center
Fri 14:35:39 41.6714 -90.9756 267° West 402 745 9,754  Level Chicago Center
Fri 14:36:42 41.6650 -91.1253 267° West 404 748 9,754  Level Chicago Center
Fri 14:37:44 41.6581 -91.3047 267° West 405 750 9,754  Level Chicago Center
Fri 14:38:46 41.6511 -91.4531 266° West 403 747 9,754 -88 Level Chicago Center
Fri 14:39:48 41.6444 -91.6019 267° West 403 747 9,571 -310 Descending Chicago Center
Fri 14:40:50 41.6375 -91.7506 266° West 403 747 9,114 -605 Descending Chicago Center
Fri 14:41:52 41.6306 -91.8983 266° West 400 740 8,321 -796 Descending Chicago Center
Fri 14:42:54 41.6222 -92.0692 266° West 389 721 7,468 -737 Descending Chicago Center
Fri 14:43:56 41.6147 -92.2053 266° West 373 690 6,797 -664 Descending Chicago Center
Fri 14:44:58 41.6089 -92.3447 267° West 376 697 6,096 -664 Descending Chicago Center
Fri 14:46:00 41.6025 -92.4853 267° West 380 703 5,425 -658 Descending Chicago Center
Fri 14:47:03 41.5947 -92.6167 266° West 364 674 4,724 -744 Descending Chicago Center
Fri 14:47:26 41.5919 -92.6875 267° West 358 663 4,359 -774 Descending Minneapolis Center
Fri 14:48:28 41.5836 -92.8275 265° West 353 653 3,627 -487 Descending Minneapolis Center
Fri 14:49:30 41.5767 -92.9544 266° West 344 637 3,353 -280 Descending Minneapolis Center
Fri 14:50:32 41.5700 -93.0822 266° West 321 594 3,048 -281 Descending Minneapolis Center
Fri 14:51:01 41.5722 -93.1239 274° West 306 566 2,926 -265 Descending Minneapolis Center
Fri 14:51:34 41.5631 -93.1889 259° West 290 538 2,774 -273 Descending Minneapolis Center
Fri 14:52:08 41.5658 -93.2358 275° West 288 533 2,621 -295 Descending Minneapolis Center
Fri 14:52:36 41.5567 -93.2939 258° West 284 526 2,469 -343 Descending Minneapolis Center
Fri 14:52:56 41.5606 -93.3253 279° West 283 525 2,347 -295 Descending Minneapolis Center
Fri 14:53:38 41.5497 -93.4047 260° West 280 518 2,164 -246 Descending Minneapolis Center
Fri 14:54:40 41.5111 -93.4969 241° Southwest 284 526 1,920 -293 Descending Minneapolis Center
Fri 14:55:43 41.4564 -93.5861 231° Southwest 286 529 1,554 -339 Descending Minneapolis Center
Fri 14:56:44 41.4175 -93.6481 230° Southwest 283 525 1,219 -310 Descending Minneapolis Center
Fri 14:57:47 41.4350 -93.7372 285° West 236 438 914 -253 Descending Minneapolis Center
Fri 14:58:54 41.4906 -93.7381 359° North 159 295 671 -214 Descending Minneapolis Center
Fri 14:59:55 41.5139 -93.6997 51° Northeast 134 248 457 -181 Descending Minneapolis Center
Fri 15:01:05 41.5314 -93.6628 58° Northeast 134 248 274 -157 Descending Minneapolis Center

Login

Don't have an account? Register now (free) for customized features, flight alerts, and more!